»·PEaware :: N763BR KLAX-EGLL

N763BR :: KLAX-EGLL

FLIGHT INFORMATION

Flight Status: Arrived
Operator: Privately registered:
United States
More flights under this callsign
Pilot: John H. (610)
Aircraft: BOEING 777-200
(B772)
More flights by this aircraft type
Origin: KLAX Los Angeles Intl
United States
Destination: EGLL Heathrow
United Kingdom
More flights between these airports :: More routes between these airports
Route: +OSHNN4 DAG LAS KU48O KD57Q BONGO KD69S KD81U JELRO KP18A YWG NORUN YRL GADRU CHARN YVP PEPKI PIDSO 6100N 05000W 6100N 04000W 6000N 03000W 5900N 02000W AGORI OSBOX MIMKU KELLY UL10 WAL UY53 NUGRA
File this flight plan on PilotEdge
Remarks:
Altitude:
(Current/Filed)
31,000ft
Speed:
(Current/Filed)
479kts
Departed: 14-May-15 10:03 PM
Arrived: 15-May-15 08:18 AM
Distance/Time
Traveled:
4727nm/10:14
Distance/Time
To Go:
Arrived

Flight Plot

Page will automatically refresh every two minutes.

Flight plan parsing failed; only flown route is shown


Map Options




Map Legend


Flown Route
Filed Route
Departure Airport
Arrival Airport
Navaid (VOR, NDB)
Fix

Horizontal Profiles

Position Reports

Time Latitude Longitude Heading Altitude Ground
Speed
14-May-15 21:56 33.941872 -118.406373 262 142ft 0kts
14-May-15 21:57 33.941872 -118.406373 262 142ft 0kts
14-May-15 21:58 33.941872 -118.406373 262 142ft 0kts
14-May-15 21:59 33.942064 -118.405651 228 142ft 3kts
14-May-15 22:00 33.938848 -118.399517 84 142ft 52kts
14-May-15 22:01 33.940434 -118.384050 80 142ft 42kts
14-May-15 22:02 33.939770 -118.381115 262 142ft 1kts
14-May-15 22:03 33.935424 -118.428780 261 848ft 228kts
14-May-15 22:04 33.900860 -118.498696 226 2989ft 260kts
14-May-15 22:05 33.849315 -118.558175 184 5650ft 262kts
14-May-15 22:06 33.778507 -118.542718 167 8489ft 265kts
14-May-15 22:07 33.706176 -118.521788 149 11195ft 275kts
14-May-15 22:08 33.671367 -118.433868 112 14167ft 312kts
14-May-15 22:09 33.643233 -118.334543 98 16856ft 327kts
14-May-15 22:10 33.644534 -118.223281 95 19648ft 344kts
14-May-15 22:11 33.699031 -118.130776 43 22507ft 383kts
14-May-15 22:12 33.786456 -118.051777 41 25241ft 405kts
14-May-15 22:13 33.877876 -117.969165 41 27947ft 415kts
14-May-15 22:14 33.969047 -117.886576 41 30570ft 411kts
14-May-15 22:15 34.064081 -117.799994 37 31077ft 459kts
14-May-15 22:16 34.157275 -117.685594 47 31049ft 484kts
14-May-15 22:17 34.242954 -117.569405 47 31049ft 474kts
14-May-15 22:18 34.329323 -117.451922 47 31080ft 492kts
14-May-15 22:19 34.420601 -117.327324 48 31049ft 502kts
14-May-15 22:20 34.512116 -117.201964 48 31049ft 502kts
14-May-15 22:21 34.604281 -117.075257 48 30983ft 503kts
14-May-15 22:22 34.695488 -116.949406 48 30979ft 503kts
14-May-15 22:23 34.785990 -116.824084 48 30990ft 509kts
14-May-15 22:24 34.877149 -116.697394 48 30979ft 515kts
14-May-15 22:25 34.970478 -116.567514 46 30976ft 515kts
14-May-15 22:26 35.070494 -116.443836 41 30855ft 514kts
14-May-15 22:27 35.171927 -116.316824 40 30850ft 545kts
14-May-15 22:28 35.276789 -116.185313 41 30856ft 553kts
14-May-15 22:29 35.381660 -116.053203 42 30861ft 567kts
14-May-15 22:30 35.491499 -115.914258 43 30864ft 574kts
14-May-15 22:31 35.599812 -115.776680 44 30868ft 578kts
14-May-15 22:32 35.708040 -115.638636 44 30858ft 579kts
14-May-15 22:33 35.818365 -115.497331 44 30861ft 580kts
14-May-15 22:34 35.927837 -115.356260 45 30851ft 581kts
14-May-15 22:35 36.034317 -115.218692 45 30825ft 581kts
14-May-15 22:36 36.129355 -115.090070 47 30828ft 567kts
14-May-15 22:37 36.231974 -114.946756 48 30783ft 557kts
14-May-15 22:38 36.332599 -114.805068 48 30787ft 547kts
14-May-15 22:39 36.432465 -114.663898 48 30788ft 542kts
14-May-15 22:40 36.530930 -114.524124 48 30789ft 539kts
14-May-15 22:41 36.626422 -114.387592 49 30785ft 538kts
14-May-15 22:42 36.723348 -114.248951 49 30779ft 537kts
14-May-15 22:43 36.820441 -114.109397 49 30780ft 536kts
14-May-15 22:44 36.915911 -113.971599 49 30781ft 536kts
14-May-15 22:45 37.007098 -113.839445 49 30783ft 536kts
14-May-15 22:46 37.098147 -113.707029 52 30825ft 502kts
14-May-15 22:47 37.186649 -113.577629 51 30825ft 480kts
14-May-15 22:48 37.271806 -113.452750 51 30824ft 473kts
14-May-15 22:49 37.356806 -113.327288 50 30828ft 472kts
14-May-15 22:50 37.441722 -113.201818 49 30826ft 471kts
14-May-15 22:51 37.526440 -113.076151 49 30825ft 471kts
14-May-15 22:52 37.610805 -112.950522 49 30825ft 471kts
14-May-15 22:53 37.691851 -112.829374 49 30828ft 471kts
14-May-15 22:54 37.775927 -112.703224 49 30827ft 471kts
14-May-15 22:55 37.859733 -112.576989 49 30826ft 471kts
14-May-15 22:56 37.941777 -112.452926 50 30824ft 471kts
14-May-15 22:57 38.014093 -112.342873 50 30873ft 472kts
14-May-15 22:58 38.101260 -112.209956 50 30951ft 512kts
14-May-15 22:59 38.187801 -112.077681 49 30950ft 503kts
14-May-15 23:00 38.275329 -111.943255 49 30979ft 500kts
14-May-15 23:01 38.364446 -111.805864 49 30983ft 511kts
14-May-15 23:02 38.453842 -111.667407 49 30984ft 517kts
14-May-15 23:03 38.544140 -111.526934 50 30985ft 519kts
14-May-15 23:04 38.616483 -111.413494 51 30983ft 519kts
14-May-15 23:05 38.706499 -111.272440 51 30978ft 520kts
14-May-15 23:06 38.811954 -111.106296 51 30979ft 520kts
14-May-15 23:07 38.887109 -110.987362 51 30976ft 521kts
14-May-15 23:08 38.976359 -110.845509 49 30892ft 506kts
14-May-15 23:09 39.063431 -110.706606 49 30891ft 497kts
14-May-15 23:10 39.148991 -110.569460 50 30890ft 496kts
14-May-15 23:11 39.231111 -110.436994 51 30889ft 496kts
14-May-15 23:12 39.316341 -110.299133 51 30889ft 496kts
14-May-15 23:13 39.399447 -110.164206 51 30889ft 497kts
14-May-15 23:14 39.483810 -110.026654 51 30890ft 497kts
14-May-15 23:15 39.586861 -109.911137 34 30968ft 495kts
14-May-15 23:16 39.694166 -109.801945 35 30964ft 512kts
14-May-15 23:17 39.803034 -109.690232 35 30965ft 525kts
14-May-15 23:18 39.915500 -109.574296 35 30966ft 532kts
14-May-15 23:19 40.026842 -109.458938 36 30922ft 534kts
14-May-15 23:20 40.137675 -109.343752 33 30898ft 516kts
14-May-15 23:21 40.235180 -109.250647 33 30901ft 509kts
14-May-15 23:22 40.327837 -109.161042 33 30901ft 505kts
14-May-15 23:23 40.432519 -109.059510 33 30901ft 503kts
14-May-15 23:24 40.542527 -108.952374 33 30900ft 501kts
14-May-15 23:25 40.651071 -108.846224 33 30901ft 501kts
14-May-15 23:26 40.761226 -108.738043 33 30904ft 500kts
14-May-15 23:27 40.871142 -108.629644 33 30904ft 500kts
14-May-15 23:28 40.980421 -108.521415 33 30904ft 500kts
14-May-15 23:29 41.090161 -108.412093 35 30952ft 523kts
14-May-15 23:30 41.205147 -108.297161 38 30950ft 520kts
14-May-15 23:31 41.318909 -108.182961 39 30951ft 510kts
14-May-15 23:32 41.430061 -108.070909 39 30950ft 502kts
14-May-15 23:33 41.541448 -107.960444 37 30989ft 513kts
14-May-15 23:34 41.657765 -107.848122 35 30979ft 529kts
14-May-15 23:35 41.775642 -107.734024 34 30982ft 527kts
14-May-15 23:36 41.893680 -107.619215 33 30984ft 523kts
14-May-15 23:37 42.010186 -107.505360 33 30985ft 521kts
14-May-15 23:38 42.125709 -107.391621 33 30980ft 519kts
14-May-15 23:39 42.241421 -107.277482 33 30981ft 518kts
14-May-15 23:40 42.356138 -107.163800 33 30981ft 518kts
14-May-15 23:41 42.470909 -107.049536 33 30982ft 517kts
14-May-15 23:42 42.586442 -106.934185 36 30941ft 529kts
14-May-15 23:43 42.702037 -106.817863 39 30925ft 508kts
14-May-15 23:44 42.812648 -106.706112 39 30925ft 489kts
14-May-15 23:45 42.920408 -106.596811 38 30925ft 481kts
14-May-15 23:46 43.026147 -106.489091 38 30924ft 477kts
14-May-15 23:47 43.131817 -106.380654 38 30929ft 476kts
14-May-15 23:48 43.237313 -106.272237 38 30928ft 475kts
14-May-15 23:49 43.342454 -106.163702 38 30927ft 475kts
14-May-15 23:50 43.447373 -106.054914 38 30926ft 474kts
14-May-15 23:51 43.547998 -105.938228 41 30932ft 474kts
14-May-15 23:52 43.642425 -105.817202 43 30925ft 473kts
14-May-15 23:53 43.738504 -105.693140 43 30927ft 473kts
14-May-15 23:54 43.834332 -105.568785 43 30926ft 473kts
14-May-15 23:55 43.928751 -105.445247 43 30929ft 473kts
14-May-15 23:56 44.024435 -105.319994 44 30929ft 473kts
14-May-15 23:57 44.111936 -105.204883 44 30928ft 473kts
14-May-15 23:58 44.206686 -105.079676 44 30927ft 473kts
14-May-15 23:59 44.301033 -104.954717 46 30998ft 481kts
15-May-15 00:00 44.402065 -104.819391 43 31010ft 534kts
15-May-15 00:01 44.508551 -104.676725 39 31003ft 514kts
15-May-15 00:02 44.608391 -104.542253 38 31000ft 489kts
15-May-15 00:03 44.703569 -104.413002 39 31003ft 477kts
15-May-15 00:04 44.798091 -104.284316 39 31002ft 470kts
15-May-15 00:05 44.891629 -104.156390 39 31001ft 467kts
15-May-15 00:06 44.984476 -104.028805 40 31000ft 465kts
15-May-15 00:07 45.079926 -103.897356 41 31055ft 514kts
15-May-15 00:08 45.184713 -103.751737 47 31049ft 518kts
15-May-15 00:09 45.283638 -103.613538 48 31047ft 486kts
15-May-15 00:10 45.377036 -103.482137 48 31051ft 471kts
15-May-15 00:11 45.454105 -103.373564 47 31049ft 466kts
15-May-15 00:12 45.561170 -103.222014 46 31047ft 463kts
15-May-15 00:13 45.651550 -103.093403 46 31047ft 462kts
15-May-15 00:14 45.727189 -102.985285 46 31047ft 461kts
15-May-15 00:15 45.817654 -102.855613 44 31043ft 461kts
15-May-15 00:16 45.915027 -102.735904 42 31045ft 462kts
15-May-15 00:17 46.012033 -102.615013 42 31044ft 462kts
15-May-15 00:18 46.108016 -102.494561 43 31049ft 461kts
15-May-15 00:19 46.204866 -102.372714 42 31048ft 461kts
15-May-15 00:20 46.301197 -102.250979 42 31047ft 461kts
15-May-15 00:21 46.397576 -102.128598 42 31046ft 461kts
15-May-15 00:22 46.493657 -102.006000 42 31045ft 461kts
15-May-15 00:23 46.589968 -101.882503 42 31044ft 461kts
15-May-15 00:24 46.685449 -101.759463 42 31046ft 461kts
15-May-15 00:25 46.781010 -101.635716 42 31045ft 461kts
15-May-15 00:26 46.876008 -101.511956 44 31050ft 461kts
15-May-15 00:27 46.971291 -101.387078 43 31049ft 461kts
15-May-15 00:28 47.068690 -101.258853 44 31112ft 498kts
15-May-15 00:29 47.173093 -101.121010 40 31109ft 500kts
15-May-15 00:30 47.274578 -100.986249 40 31110ft 489kts
15-May-15 00:31 47.374972 -100.852143 41 31110ft 486kts
15-May-15 00:32 47.474956 -100.717858 41 31109ft 486kts
15-May-15 00:33 47.574865 -100.582953 41 31109ft 487kts
15-May-15 00:34 47.672583 -100.449934 42 31110ft 487kts
15-May-15 00:35 47.771947 -100.314257 42 31110ft 487kts
15-May-15 00:36 47.871638 -100.177457 42 31110ft 487kts
15-May-15 00:37 47.970925 -100.040462 42 31110ft 487kts
15-May-15 00:38 48.070791 -99.904079 41 31110ft 488kts
15-May-15 00:39 48.170994 -99.767497 41 31110ft 488kts
15-May-15 00:40 48.271274 -99.630001 41 31110ft 488kts
15-May-15 00:41 48.369918 -99.493421 42 31110ft 488kts
15-May-15 00:42 48.469426 -99.355603 42 31110ft 488kts
15-May-15 00:43 48.569035 -99.216730 42 31110ft 488kts
15-May-15 00:44 48.667817 -99.078237 42 31110ft 488kts
15-May-15 00:45 48.766969 -98.938442 42 31110ft 488kts
15-May-15 00:46 48.866012 -98.798010 42 31110ft 488kts
15-May-15 00:47 48.964592 -98.657439 42 31110ft 488kts
15-May-15 00:48 49.062583 -98.516481 43 31109ft 488kts
15-May-15 00:49 49.161173 -98.374278 43 31110ft 488kts
15-May-15 00:50 49.259331 -98.231877 43 31110ft 488kts
15-May-15 00:51 49.357268 -98.088986 43 31110ft 488kts
15-May-15 00:52 49.455339 -97.945070 43 31110ft 488kts
15-May-15 00:53 49.553144 -97.800705 43 31110ft 488kts
15-May-15 00:54 49.650402 -97.656307 43 31108ft 488kts
15-May-15 00:55 49.747571 -97.510593 44 31110ft 488kts
15-May-15 00:56 49.844714 -97.364796 44 31110ft 488kts
15-May-15 00:57 49.933392 -97.228371 52 31085ft 487kts
15-May-15 00:58 50.001892 -97.048420 56 31021ft 485kts
15-May-15 00:59 50.072095 -96.867493 56 31021ft 491kts
15-May-15 01:00 50.142739 -96.683571 55 31022ft 497kts
15-May-15 01:01 50.213327 -96.497570 56 31019ft 502kts
15-May-15 01:02 50.283152 -96.307955 62 31015ft 506kts
15-May-15 01:03 50.346629 -96.111683 59 31020ft 507kts
15-May-15 01:04 50.409997 -95.915073 60 31021ft 507kts
15-May-15 01:05 50.473440 -95.716765 60 31022ft 508kts
15-May-15 01:06 50.536173 -95.518341 61 31017ft 509kts
15-May-15 01:07 50.598963 -95.318906 60 31019ft 509kts
15-May-15 01:08 50.661329 -95.119148 60 31023ft 509kts
15-May-15 01:09 50.723362 -94.918881 60 31023ft 509kts
15-May-15 01:10 50.785132 -94.717817 60 31024ft 509kts
15-May-15 01:11 50.846425 -94.515749 62 31019ft 510kts
15-May-15 01:12 50.907504 -94.313733 61 31021ft 510kts
15-May-15 01:13 50.968383 -94.110532 61 31022ft 510kts
15-May-15 01:14 51.028882 -93.906924 61 31022ft 510kts
15-May-15 01:15 51.089458 -93.703711 60 31023ft 509kts
15-May-15 01:16 51.150916 -93.501097 61 31019ft 510kts
15-May-15 01:17 51.212668 -93.297136 61 31020ft 510kts
15-May-15 01:18 51.273865 -93.092955 61 31021ft 510kts
15-May-15 01:19 51.334642 -92.888461 61 31022ft 510kts
15-May-15 01:20 51.395239 -92.682822 61 31023ft 510kts
15-May-15 01:21 51.455136 -92.476855 62 31019ft 511kts
15-May-15 01:22 51.514835 -92.270835 62 31020ft 511kts
15-May-15 01:23 51.574371 -92.063497 62 31021ft 511kts
15-May-15 01:24 51.633349 -91.856281 62 31021ft 511kts
15-May-15 01:25 51.691951 -91.648554 62 31024ft 511kts
15-May-15 01:26 51.740523 -91.474047 63 31020ft 511kts
15-May-15 01:27 51.808276 -91.229807 63 31021ft 512kts
15-May-15 01:28 51.865981 -91.019704 63 31022ft 512kts
15-May-15 01:29 51.913836 -90.844010 63 31023ft 512kts
15-May-15 01:30 51.970941 -90.632591 63 31024ft 512kts
15-May-15 01:31 52.027271 -90.421266 64 31020ft 512kts
15-May-15 01:32 52.083717 -90.208327 64 31021ft 512kts
15-May-15 01:33 52.139713 -89.995368 63 31020ft 512kts
15-May-15 01:34 52.208307 -89.792658 58 31023ft 511kts
15-May-15 01:35 52.276017 -89.589200 59 31022ft 511kts
15-May-15 01:36 52.343210 -89.385202 59 31020ft 511kts
15-May-15 01:37 52.410548 -89.179947 59 31020ft 511kts
15-May-15 01:38 52.477228 -88.974955 59 31021ft 511kts
15-May-15 01:39 52.543653 -88.769031 59 31022ft 511kts
15-May-15 01:40 52.609758 -88.562015 60 31018ft 512kts
15-May-15 01:41 52.675415 -88.354566 60 31020ft 512kts
15-May-15 01:42 52.741078 -88.145737 60 31022ft 512kts
15-May-15 01:43 52.806163 -87.936973 60 31023ft 512kts
15-May-15 01:44 52.870983 -87.727252 60 31024ft 512kts
15-May-15 01:45 52.935096 -87.516883 60 31020ft 513kts
15-May-15 01:46 52.999172 -87.306204 61 31020ft 513kts
15-May-15 01:47 53.063085 -87.093905 61 31021ft 513kts
15-May-15 01:48 53.126261 -86.882187 61 31022ft 513kts
15-May-15 01:49 53.189204 -86.669360 61 31023ft 513kts
15-May-15 01:50 53.251652 -86.455571 61 31020ft 513kts
15-May-15 01:51 53.314122 -86.240350 61 31020ft 513kts
15-May-15 01:52 53.376033 -86.025242 61 31022ft 513kts
15-May-15 01:53 53.437580 -85.809427 62 31023ft 514kts
15-May-15 01:54 53.498606 -85.593414 63 31020ft 514kts
15-May-15 01:55 53.559345 -85.375560 62 31020ft 514kts
15-May-15 01:56 53.619651 -85.158133 62 31021ft 514kts
15-May-15 01:57 53.675143 -84.956204 62 31022ft 514kts
15-May-15 01:58 53.734802 -84.737135 62 31023ft 514kts
15-May-15 01:59 53.793850 -84.517012 63 31020ft 515kts
15-May-15 02:00 53.852934 -84.296116 63 31021ft 515kts
15-May-15 02:01 53.911510 -84.074708 63 31022ft 515kts
15-May-15 02:02 53.969541 -83.853206 63 31023ft 515kts
15-May-15 02:03 54.027387 -83.630220 63 31024ft 515kts
15-May-15 02:04 54.084490 -83.406864 64 31020ft 515kts
15-May-15 02:05 54.141390 -83.183166 64 31021ft 515kts
15-May-15 02:06 54.198032 -82.958170 64 31022ft 515kts
15-May-15 02:07 54.254141 -82.733011 64 31023ft 515kts
15-May-15 02:08 54.309673 -82.506734 65 31020ft 516kts
15-May-15 02:09 54.364870 -82.280760 65 31021ft 516kts
15-May-15 02:10 54.419805 -82.053391 65 31022ft 516kts
15-May-15 02:11 54.474417 -81.824971 65 31023ft 516kts
15-May-15 02:12 54.528330 -81.596869 67 31022ft 516kts
15-May-15 02:13 54.581816 -81.367501 66 31020ft 516kts
15-May-15 02:14 54.635114 -81.137333 66 31021ft 516kts
15-May-15 02:15 54.687926 -80.906703 66 31022ft 516kts
15-May-15 02:16 54.740182 -80.676068 66 31023ft 516kts
15-May-15 02:17 54.792045 -80.443596 67 31020ft 517kts
15-May-15 02:18 54.843550 -80.211103 67 31021ft 517kts
15-May-15 02:19 54.895725 -79.979113 58 30997ft 515kts
15-May-15 02:20 54.971119 -79.768038 56 31023ft 514kts
15-May-15 02:21 55.044176 -79.555773 57 31019ft 515kts
15-May-15 02:22 55.117948 -79.341285 57 31020ft 515kts
15-May-15 02:23 55.190080 -79.129465 57 31021ft 515kts
15-May-15 02:24 55.263781 -78.911125 57 31022ft 515kts
15-May-15 02:25 55.336441 -78.693928 57 31024ft 515kts
15-May-15 02:26 55.408227 -78.476689 58 31020ft 515kts
15-May-15 02:27 55.479973 -78.258219 58 31021ft 515kts
15-May-15 02:28 55.551262 -78.039273 58 31022ft 515kts
15-May-15 02:29 55.622170 -77.819504 58 31023ft 515kts
15-May-15 02:30 55.692574 -77.598783 59 31018ft 516kts
15-May-15 02:31 55.762846 -77.376617 59 31020ft 516kts
15-May-15 02:32 55.832739 -77.153871 59 31021ft 516kts
15-May-15 02:33 55.902136 -76.930651 59 31022ft 516kts
15-May-15 02:34 55.971112 -76.706683 59 31023ft 516kts
15-May-15 02:35 56.039564 -76.481530 60 31020ft 516kts
15-May-15 02:36 56.107751 -76.255748 60 31021ft 516kts
15-May-15 02:37 56.175761 -76.028500 60 31022ft 516kts
15-May-15 02:38 56.243186 -75.801015 60 31023ft 516kts
15-May-15 02:39 56.298912 -75.610835 61 31019ft 517kts
15-May-15 02:40 56.365465 -75.381813 61 31020ft 517kts
15-May-15 02:41 56.431917 -75.151278 61 31022ft 517kts
15-May-15 02:42 56.497679 -74.920878 61 31023ft 517kts
15-May-15 02:43 56.563172 -74.689118 61 31024ft 517kts
15-May-15 02:44 56.627934 -74.456658 62 31021ft 517kts
15-May-15 02:45 56.692621 -74.223076 62 31020ft 517kts
15-May-15 02:46 56.756711 -73.989273 62 31021ft 517kts
15-May-15 02:47 56.820543 -73.754004 62 31023ft 517kts
15-May-15 02:48 56.883720 -73.517847 62 31019ft 517kts
15-May-15 02:49 56.946604 -73.281074 62 31020ft 517kts
15-May-15 02:50 57.008956 -73.043956 62 31022ft 517kts
15-May-15 02:51 57.070998 -72.805498 62 31023ft 517kts
15-May-15 02:52 57.132238 -72.566251 63 31020ft 517kts
15-May-15 02:53 57.193298 -72.326816 63 31021ft 518kts
15-May-15 02:54 57.254030 -72.085742 63 31022ft 518kts
15-May-15 02:55 57.314219 -71.844202 63 31023ft 518kts
15-May-15 02:56 57.373678 -71.601770 65 31019ft 518kts
15-May-15 02:57 57.428871 -71.375570 64 31021ft 518kts
15-May-15 02:58 57.487757 -71.131423 64 31022ft 518kts
15-May-15 02:59 57.546117 -70.886749 64 31023ft 518kts
15-May-15 03:00 57.603849 -70.641629 66 31020ft 518kts
15-May-15 03:01 57.660930 -70.395932 65 31019ft 518kts
15-May-15 03:02 57.717827 -70.149079 65 31020ft 518kts
15-May-15 03:03 57.774315 -69.901125 65 31022ft 518kts
15-May-15 03:04 57.830283 -69.652373 67 31018ft 518kts
15-May-15 03:05 57.885621 -69.402665 66 31020ft 518kts
15-May-15 03:06 57.940702 -69.152141 66 31021ft 518kts
15-May-15 03:07 57.995308 -68.900760 66 31022ft 518kts
15-May-15 03:08 58.049188 -68.649357 68 31018ft 518kts
15-May-15 03:09 58.103499 -68.396803 60 31003ft 518kts
15-May-15 03:10 58.171242 -68.157175 61 31021ft 518kts
15-May-15 03:11 58.237492 -67.916663 63 31046ft 503kts
15-May-15 03:12 58.297793 -67.694118 64 31047ft 452kts
15-May-15 03:13 58.354310 -67.483318 62 31049ft 447kts
15-May-15 03:14 58.411067 -67.270882 61 31047ft 452kts
15-May-15 03:15 58.468046 -67.055491 60 31046ft 458kts
15-May-15 03:16 58.525264 -66.837052 60 31046ft 461kts
15-May-15 03:17 58.582142 -66.616423 61 31046ft 463kts
15-May-15 03:18 58.639104 -66.394909 61 31042ft 465kts
15-May-15 03:19 58.695828 -66.171810 60 31052ft 465kts
15-May-15 03:20 58.752349 -65.947251 60 31051ft 466kts
15-May-15 03:21 58.808430 -65.722163 60 31051ft 466kts
15-May-15 03:22 58.863817 -65.496409 61 31050ft 466kts
15-May-15 03:23 58.919085 -65.270027 61 31050ft 466kts
15-May-15 03:24 58.974234 -65.041712 61 31050ft 466kts
15-May-15 03:25 59.028674 -64.813957 61 31050ft 466kts
15-May-15 03:26 59.082698 -64.584367 62 31049ft 467kts
15-May-15 03:27 59.136432 -64.354773 62 31049ft 467kts
15-May-15 03:28 59.189874 -64.123944 62 31049ft 467kts
15-May-15 03:29 59.242803 -63.892838 62 31048ft 467kts
15-May-15 03:30 59.295333 -63.660130 64 31048ft 468kts
15-May-15 03:31 59.347375 -63.427544 63 31047ft 467kts
15-May-15 03:32 59.399173 -63.193772 63 31047ft 467kts
15-May-15 03:33 59.450665 -62.958796 63 31047ft 467kts
15-May-15 03:34 59.501544 -62.723995 63 31047ft 467kts
15-May-15 03:35 59.551946 -62.487434 64 31046ft 468kts
15-May-15 03:36 59.602032 -62.251018 64 31046ft 468kts
15-May-15 03:37 59.651789 -62.013321 64 31053ft 468kts
15-May-15 03:38 59.701057 -61.775247 64 31052ft 468kts
15-May-15 03:39 59.746223 -61.533795 71 31060ft 471kts
15-May-15 03:40 59.785372 -61.285508 69 31051ft 470kts
15-May-15 03:41 59.823641 -61.037730 69 31051ft 470kts
15-May-15 03:42 59.861655 -60.788149 69 31051ft 470kts
15-May-15 03:43 59.898760 -60.539359 70 31050ft 471kts
15-May-15 03:44 59.935768 -60.288904 70 31050ft 471kts
15-May-15 03:45 59.972364 -60.037616 70 31050ft 471kts
15-May-15 03:46 60.002417 -59.828346 70 31050ft 471kts
15-May-15 03:47 60.037785 -59.576883 71 31049ft 471kts
15-May-15 03:48 60.072984 -59.324167 71 31049ft 471kts
15-May-15 03:49 60.107705 -59.071061 71 31049ft 471kts
15-May-15 03:50 60.141947 -58.817400 71 31049ft 471kts
15-May-15 03:51 60.175514 -58.562954 72 31049ft 471kts
15-May-15 03:52 60.208720 -58.308436 72 31048ft 471kts
15-May-15 03:53 60.241536 -58.052922 72 31048ft 471kts
15-May-15 03:54 60.273774 -57.797595 72 31048ft 471kts
15-May-15 03:55 60.305465 -57.540313 73 31048ft 472kts
15-May-15 03:56 60.336689 -57.284031 73 31048ft 472kts
15-May-15 03:57 60.365417 -57.044302 73 31048ft 472kts
15-May-15 03:58 60.395813 -56.786181 73 31048ft 472kts
15-May-15 03:59 60.425507 -56.527170 74 31047ft 472kts
15-May-15 04:00 60.454839 -56.268581 74 31047ft 472kts
15-May-15 04:01 60.483810 -56.008311 74 31047ft 472kts
15-May-15 04:02 60.512166 -55.748583 74 31047ft 472kts
15-May-15 04:03 60.539755 -55.488345 74 31046ft 473kts
15-May-15 04:04 60.567188 -55.226973 74 31046ft 473kts
15-May-15 04:05 60.594062 -54.965529 74 31046ft 473kts
15-May-15 04:06 60.620399 -54.703255 76 31046ft 473kts
15-May-15 04:07 60.646082 -54.440673 75 31052ft 473kts
15-May-15 04:08 60.671401 -54.178085 75 31052ft 473kts
15-May-15 04:09 60.696321 -53.913882 75 31052ft 473kts
15-May-15 04:10 60.720333 -53.650017 76 31052ft 473kts
15-May-15 04:11 60.744187 -53.386036 76 31051ft 473kts
15-May-15 04:12 60.767517 -53.120953 76 31051ft 473kts
15-May-15 04:13 60.790303 -52.855742 76 31051ft 473kts
15-May-15 04:14 60.812338 -52.590039 77 31051ft 473kts
15-May-15 04:15 60.834041 -52.324290 77 31051ft 473kts
15-May-15 04:16 60.855269 -52.057793 77 31051ft 473kts
15-May-15 04:17 60.875963 -51.791027 77 31051ft 473kts
15-May-15 04:18 60.895843 -51.524352 78 31050ft 474kts
15-May-15 04:19 60.915549 -51.255934 78 31050ft 474kts
15-May-15 04:20 60.934622 -50.988574 78 31050ft 474kts
15-May-15 04:21 60.953192 -50.720055 79 31048ft 474kts
15-May-15 04:22 60.971044 -50.451145 79 31050ft 474kts
15-May-15 04:23 60.988534 -50.182632 79 31050ft 474kts
15-May-15 04:24 61.003276 -49.912731 83 31053ft 476kts
15-May-15 04:25 61.012748 -49.640722 83 31050ft 476kts
15-May-15 04:26 61.021944 -49.368931 83 31049ft 475kts
15-May-15 04:27 61.030553 -49.096667 83 31050ft 475kts
15-May-15 04:28 61.038608 -48.824398 83 31050ft 475kts
15-May-15 04:29 61.045899 -48.551664 84 31049ft 476kts
15-May-15 04:30 61.052834 -48.279014 84 31049ft 476kts
15-May-15 04:31 61.059223 -48.007190 84 31049ft 476kts
15-May-15 04:32 61.065077 -47.734382 85 31048ft 476kts
15-May-15 04:33 61.070157 -47.460591 84 31049ft 476kts
15-May-15 04:34 61.074915 -47.187829 84 31049ft 476kts
15-May-15 04:35 61.079133 -46.914234 84 31049ft 476kts
15-May-15 04:36 61.082461 -46.641648 85 31049ft 476kts
15-May-15 04:37 61.085623 -46.369860 85 31049ft 476kts
15-May-15 04:38 61.088201 -46.094371 85 31049ft 476kts
15-May-15 04:39 61.090205 -45.820773 85 31049ft 476kts
15-May-15 04:40 61.091425 -45.548052 86 31049ft 476kts
15-May-15 04:41 61.092303 -45.273922 86 31049ft 476kts
15-May-15 04:42 61.092647 -45.000225 86 31049ft 476kts
15-May-15 04:43 61.092418 -44.726534 87 31046ft 477kts
15-May-15 04:44 61.091430 -44.453413 87 31049ft 476kts
15-May-15 04:45 61.090112 -44.178824 87 31049ft 476kts
15-May-15 04:46 61.088247 -43.905420 87 31049ft 476kts
15-May-15 04:47 61.085519 -43.632376 88 31049ft 477kts
15-May-15 04:48 61.082604 -43.358588 88 31049ft 477kts
15-May-15 04:49 61.079095 -43.086082 88 31049ft 477kts
15-May-15 04:50 61.074987 -42.810603 88 31049ft 477kts
15-May-15 04:51 61.070117 -42.537266 89 31049ft 477kts
15-May-15 04:52 61.064917 -42.263823 89 31049ft 477kts
15-May-15 04:53 61.059171 -41.990237 89 31049ft 477kts
15-May-15 04:54 61.052833 -41.717049 90 31047ft 477kts
15-May-15 04:55 61.046947 -41.489261 90 31049ft 477kts
15-May-15 04:56 61.038379 -41.170579 90 31049ft 477kts
15-May-15 04:57 61.032380 -40.962821 90 31050ft 477kts
15-May-15 04:58 61.023843 -40.690277 91 31049ft 477kts
15-May-15 04:59 61.014818 -40.416459 91 31049ft 477kts
15-May-15 05:00 61.005362 -40.144478 91 31050ft 477kts
15-May-15 05:01 60.992183 -39.872106 93 31052ft 478kts
15-May-15 05:02 60.975221 -39.600234 94 31050ft 478kts
15-May-15 05:03 60.957821 -39.329124 94 31050ft 478kts
15-May-15 05:04 60.939869 -39.058216 94 31050ft 478kts
15-May-15 05:05 60.921355 -38.787383 94 31050ft 478kts
15-May-15 05:06 60.902031 -38.516730 95 31050ft 479kts
15-May-15 05:07 60.882415 -38.246278 95 31050ft 479kts
15-May-15 05:08 60.862317 -37.977011 95 31051ft 478kts
15-May-15 05:09 60.841549 -37.707273 96 31050ft 479kts
15-May-15 05:10 60.820121 -37.437784 96 31051ft 479kts
15-May-15 05:11 60.798367 -37.169089 96 31051ft 479kts
15-May-15 05:12 60.776039 -36.900253 96 31051ft 479kts
15-May-15 05:13 60.752872 -36.632075 97 31051ft 479kts
15-May-15 05:14 60.729600 -36.364692 97 31051ft 479kts
15-May-15 05:15 60.705639 -36.096695 97 31052ft 479kts
15-May-15 05:16 60.681257 -35.830346 97 31052ft 479kts
15-May-15 05:17 60.656038 -35.563471 98 31052ft 479kts
15-May-15 05:18 60.630511 -35.297401 98 31052ft 479kts
15-May-15 05:19 60.604434 -35.031166 98 31052ft 479kts
15-May-15 05:20 60.577916 -34.766226 98 31052ft 479kts
15-May-15 05:21 60.550574 -34.501407 99 31052ft 479kts
15-May-15 05:22 60.523026 -34.237417 99 31053ft 479kts
15-May-15 05:23 60.494728 -33.971832 99 31053ft 479kts
15-May-15 05:24 60.466087 -33.708706 100 31051ft 479kts
15-May-15 05:25 60.436740 -33.446057 99 31053ft 479kts
15-May-15 05:26 60.406941 -33.182497 99 31053ft 479kts
15-May-15 05:27 60.376731 -32.920333 99 31054ft 479kts
15-May-15 05:28 60.345778 -32.659011 101 31048ft 480kts
15-May-15 05:29 60.314580 -32.397982 100 31048ft 479kts
15-May-15 05:30 60.282722 -32.136463 100 31048ft 479kts
15-May-15 05:31 60.250536 -31.876902 100 31048ft 479kts
15-May-15 05:32 60.217446 -31.617248 101 31048ft 479kts
15-May-15 05:33 60.184187 -31.357767 101 31048ft 479kts
15-May-15 05:34 60.150357 -31.098779 101 31049ft 479kts
15-May-15 05:35 60.116024 -30.840354 101 31049ft 479kts
15-May-15 05:36 60.080940 -30.582474 102 31049ft 479kts
15-May-15 05:37 60.045585 -30.325095 102 31049ft 479kts
15-May-15 05:38 60.009804 -30.068691 102 31050ft 479kts
15-May-15 05:39 59.988310 -29.807717 92 31052ft 475kts
15-May-15 05:40 59.972110 -29.546046 94 31050ft 476kts
15-May-15 05:41 59.955304 -29.283854 94 31050ft 476kts
15-May-15 05:42 59.938057 -29.022698 94 31050ft 476kts
15-May-15 05:43 59.920338 -28.762452 94 31050ft 476kts
15-May-15 05:44 59.901822 -28.502066 95 31050ft 476kts
15-May-15 05:45 59.882966 -28.240791 95 31050ft 476kts
15-May-15 05:46 59.863695 -27.981242 95 31050ft 476kts
15-May-15 05:47 59.843819 -27.720697 96 31051ft 476kts
15-May-15 05:48 59.823247 -27.461538 96 31051ft 476kts
15-May-15 05:49 59.802306 -27.201106 96 31051ft 476kts
15-May-15 05:50 59.781011 -26.942995 96 31051ft 476kts
15-May-15 05:51 59.759106 -26.684748 97 31052ft 477kts
15-May-15 05:52 59.736502 -26.426021 96 31051ft 476kts
15-May-15 05:53 59.713564 -26.167565 96 31051ft 476kts
15-May-15 05:54 59.690112 -25.909360 96 31052ft 476kts
15-May-15 05:55 59.666000 -25.652394 98 31052ft 477kts
15-May-15 05:56 59.641605 -25.395739 97 31052ft 476kts
15-May-15 05:57 59.618570 -25.158360 97 31052ft 476kts
15-May-15 05:58 59.593173 -24.901931 97 31052ft 476kts
15-May-15 05:59 59.566684 -24.642760 99 31052ft 488kts
15-May-15 06:00 59.539831 -24.382608 98 31052ft 488kts
15-May-15 06:01 59.512484 -24.123320 98 31053ft 488kts
15-May-15 06:02 59.484166 -23.860169 98 31053ft 499kts
15-May-15 06:03 59.454516 -23.593023 99 31053ft 499kts
15-May-15 06:04 59.424799 -23.327385 99 31053ft 499kts
15-May-15 06:05 59.394386 -23.061277 99 31053ft 499kts
15-May-15 06:06 59.363583 -22.796939 99 31053ft 499kts
15-May-15 06:07 59.331919 -22.532138 100 31048ft 499kts
15-May-15 06:08 59.299874 -22.267663 100 31048ft 499kts
15-May-15 06:09 59.272818 -22.047864 100 31048ft 499kts
15-May-15 06:10 59.234254 -21.740228 100 31048ft 499kts
15-May-15 06:11 59.200546 -21.478564 101 31048ft 499kts
15-May-15 06:12 59.172137 -21.259761 101 31048ft 499kts
15-May-15 06:13 59.131830 -20.954778 101 31049ft 499kts
15-May-15 06:14 59.102536 -20.736880 101 31049ft 499kts
15-May-15 06:15 59.066815 -20.477219 102 31049ft 500kts
15-May-15 06:16 59.030630 -20.216491 102 31049ft 499kts
15-May-15 06:17 58.991337 -19.958587 114 31015ft 504kts
15-May-15 06:18 58.930280 -19.714879 111 31050ft 503kts
15-May-15 06:19 58.869504 -19.471264 113 31050ft 504kts
15-May-15 06:20 58.808838 -19.229340 113 31051ft 504kts
15-May-15 06:21 58.747278 -18.986600 113 31051ft 503kts
15-May-15 06:22 58.685490 -18.745607 113 31051ft 503kts
15-May-15 06:23 58.622860 -18.504986 114 31052ft 504kts
15-May-15 06:24 58.560154 -18.265647 114 31052ft 504kts
15-May-15 06:25 58.496889 -18.026711 114 31053ft 504kts
15-May-15 06:26 58.433269 -17.788962 114 31053ft 503kts
15-May-15 06:27 58.369887 -17.555504 114 31054ft 504kts
15-May-15 06:28 58.306481 -17.323505 114 31048ft 504kts
15-May-15 06:29 58.242010 -17.089910 114 31048ft 504kts
15-May-15 06:30 58.176686 -16.855641 114 31048ft 504kts
15-May-15 06:31 58.110680 -16.622380 116 31049ft 504kts
15-May-15 06:32 58.044592 -16.390069 115 31049ft 504kts
15-May-15 06:33 57.978534 -16.160272 115 31050ft 504kts
15-May-15 06:34 57.911483 -15.929325 115 31050ft 504kts
15-May-15 06:35 57.844002 -15.699195 115 31050ft 504kts
15-May-15 06:36 57.776116 -15.470953 116 31051ft 504kts
15-May-15 06:37 57.707977 -15.243065 116 31051ft 504kts
15-May-15 06:38 57.639247 -15.015476 116 31052ft 504kts
15-May-15 06:39 57.570127 -14.788807 116 31052ft 504kts
15-May-15 06:40 57.500567 -14.563891 117 31053ft 504kts
15-May-15 06:41 57.430553 -14.338571 117 31053ft 504kts
15-May-15 06:42 57.360342 -14.114833 117 31050ft 504kts
15-May-15 06:43 57.289834 -13.892267 117 31047ft 504kts
15-May-15 06:44 57.218665 -13.669725 117 31048ft 504kts
15-May-15 06:45 57.146870 -13.448224 118 31049ft 504kts
15-May-15 06:46 57.074940 -13.227440 118 31049ft 504kts
15-May-15 06:47 57.002732 -13.007865 118 31049ft 504kts
15-May-15 06:48 56.933435 -12.787473 116 31050ft 503kts
15-May-15 06:49 56.863080 -12.566603 117 31050ft 504kts
15-May-15 06:50 56.792789 -12.346609 117 31051ft 504kts
15-May-15 06:51 56.722436 -12.128635 117 31051ft 503kts
15-May-15 06:52 56.651253 -11.910098 117 31051ft 503kts
15-May-15 06:53 56.579455 -11.691682 117 31052ft 503kts
15-May-15 06:54 56.507217 -11.474785 118 31053ft 504kts
15-May-15 06:55 56.435008 -11.259050 118 31053ft 504kts
15-May-15 06:56 56.362574 -11.044586 118 31053ft 504kts
15-May-15 06:57 56.295012 -10.846255 118 31047ft 504kts
15-May-15 06:58 56.221368 -10.631987 119 31045ft 504kts
15-May-15 06:59 56.147382 -10.419280 119 31049ft 504kts
15-May-15 07:00 56.073172 -10.207070 119 31049ft 504kts
15-May-15 07:01 55.998737 -9.996050 119 31049ft 504kts
15-May-15 07:02 55.927692 -9.781509 117 31050ft 503kts
15-May-15 07:03 55.856273 -9.569293 118 31052ft 503kts
15-May-15 07:04 55.784630 -9.356850 118 31051ft 503kts
15-May-15 07:05 55.713245 -9.147256 118 31051ft 503kts
15-May-15 07:06 55.640418 -8.935286 118 31051ft 503kts
15-May-15 07:07 55.568103 -8.726628 118 31052ft 503kts
15-May-15 07:08 55.496413 -8.522263 119 31053ft 503kts
15-May-15 07:09 55.422786 -8.313439 119 31053ft 503kts
15-May-15 07:10 55.349508 -8.107322 119 31048ft 503kts
15-May-15 07:11 55.276561 -7.903849 119 31047ft 503kts
15-May-15 07:12 55.203343 -7.701299 119 31048ft 503kts
15-May-15 07:13 55.129583 -7.499588 120 31049ft 503kts
15-May-15 07:14 55.055764 -7.298811 120 31049ft 503kts
15-May-15 07:15 54.980791 -7.096521 119 30999ft 508kts
15-May-15 07:16 54.908807 -6.903426 122 30987ft 469kts
15-May-15 07:17 54.838314 -6.716210 126 30989ft 473kts
15-May-15 07:18 54.768946 -6.534205 128 30989ft 487kts
15-May-15 07:19 54.694154 -6.338476 129 30988ft 499kts
15-May-15 07:20 54.618086 -6.140993 129 30989ft 507kts
15-May-15 07:21 54.540440 -5.940990 130 31074ft 509kts
15-May-15 07:22 54.462371 -5.741529 130 31233ft 502kts
15-May-15 07:23 54.389200 -5.556986 131 34544ft 482kts
15-May-15 07:24 54.325832 -5.397126 131 34576ft 490kts
15-May-15 07:25 54.250651 -5.209196 131 34535ft 477kts
15-May-15 07:26 54.176679 -5.025627 131 34523ft 470kts
15-May-15 07:27 54.099412 -4.835362 130 34555ft 511kts
15-May-15 07:28 54.017679 -4.635561 130 34546ft 519kts
15-May-15 07:29 53.934160 -4.433789 131 34552ft 525kts
15-May-15 07:30 53.851470 -4.232201 131 34554ft 515kts
15-May-15 07:31 53.769100 -4.031913 130 32976ft 553kts
15-May-15 07:32 53.682034 -3.821509 130 32536ft 542kts
15-May-15 07:33 53.593987 -3.610652 130 31014ft 551kts
15-May-15 07:34 53.538478 -3.479264 131 31142ft 544kts
15-May-15 07:35 53.457262 -3.287553 132 31301ft 494kts
15-May-15 07:36 53.377574 -3.100689 132 31073ft 494kts
15-May-15 07:37 53.297509 -2.915069 132 31088ft 494kts
15-May-15 07:38 53.217342 -2.730508 132 31087ft 494kts
15-May-15 07:39 53.136619 -2.546815 133 31082ft 493kts
15-May-15 07:40 53.055907 -2.363533 133 31082ft 493kts
15-May-15 07:41 52.954980 -2.235024 170 30092ft 452kts
15-May-15 07:42 52.845489 -2.126902 155 29090ft 456kts
15-May-15 07:43 52.738667 -2.024139 155 28089ft 448kts
15-May-15 07:44 52.630545 -1.921233 155 27113ft 456kts
15-May-15 07:45 52.522232 -1.818764 155 26422ft 450kts
15-May-15 07:46 52.416312 -1.719116 155 25593ft 444kts
15-May-15 07:47 52.310692 -1.622599 156 24442ft 437kts
15-May-15 07:48 52.207190 -1.531312 157 22688ft 425kts
15-May-15 07:49 52.104841 -1.441317 157 20906ft 417kts
15-May-15 07:50 52.004420 -1.353440 156 19114ft 408kts
15-May-15 07:51 51.905497 -1.267352 156 17333ft 415kts
15-May-15 07:52 51.805761 -1.180955 155 15563ft 414kts
15-May-15 07:53 51.706078 -1.095033 154 13779ft 407kts
15-May-15 07:54 51.607313 -1.010324 154 11975ft 395kts
15-May-15 07:55 51.516677 -0.932944 154 10350ft 339kts
15-May-15 07:56 51.444907 -0.860179 117 9685ft 296kts
15-May-15 07:57 51.410646 -0.754639 118 9032ft 293kts
15-May-15 07:58 51.373242 -0.639968 119 8243ft 289kts
15-May-15 07:59 51.334884 -0.530033 120 7459ft 285kts
15-May-15 08:00 51.297732 -0.420627 105 6652ft 281kts
15-May-15 08:01 51.312945 -0.300867 74 5975ft 276kts
15-May-15 08:02 51.332181 -0.187700 74 5968ft 277kts
15-May-15 08:03 51.351648 -0.072550 74 5969ft 277kts
15-May-15 08:04 51.371098 0.043145 74 5968ft 277kts
15-May-15 08:05 51.413362 0.129483 356 5454ft 268kts
15-May-15 08:06 51.486645 0.130467 355 4298ft 263kts
15-May-15 08:07 51.558787 0.125961 356 3472ft 259kts
15-May-15 08:08 51.625125 0.099154 295 3490ft 256kts
15-May-15 08:09 51.602348 -0.003865 239 3471ft 256kts
15-May-15 08:10 51.565887 -0.101825 239 3022ft 247kts
15-May-15 08:11 51.531388 -0.194318 239 2508ft 242kts
15-May-15 08:12 51.496790 -0.287023 239 1904ft 242kts
15-May-15 08:13 51.477970 -0.370688 264 892ft 163kts
15-May-15 08:14 51.477626 -0.435947 270 106ft 142kts
15-May-15 08:15 51.475196 -0.458061 263 100ft 31kts
15-May-15 08:16 51.474225 -0.460416 231 100ft 0kts

Navigation Log

Ident Type
Flight plan parsing failed, navigation log unavailable